Time;durP1;ratioP1;P1;durP2;ratioP2;P2;SDS_P1;SDS_P2;PMS_P1;PMS_P2;Temp;Humidity;BMP_temperature;BMP_pressure;BME280_temperature;BME280_humidity;BME280_pressure;Samples;Min_cycle;Max_cycle;Signal;HPM_P1;HPM_P2
2022/05/15 00:02:37;;;;;;;4.13;2.00;;;11.60;87.70;;;;;;5066730;28;20709;-73
2022/05/15 00:05:03;;;;;;;4.57;1.88;;;11.50;87.70;;;;;;5074622;28;20429;-73
2022/05/15 00:07:29;;;;;;;6.00;1.92;;;11.40;87.60;;;;;;5069196;28;20139;-72
2022/05/15 00:09:55;;;;;;;4.78;1.90;;;11.40;87.60;;;;;;5068932;28;20031;-74
2022/05/15 00:12:22;;;;;;;7.55;2.20;;;11.40;87.70;;;;;;5070127;28;20552;-73
2022/05/15 00:14:49;;;;;;;7.50;2.35;;;11.40;88.00;;;;;;5065098;28;20469;-72
2022/05/15 00:17:15;;;;;;;5.07;2.00;;;11.30;88.00;;;;;;5067539;28;20040;-72
2022/05/15 00:19:42;;;;;;;9.13;2.47;;;11.30;88.20;;;;;;5071096;28;20126;-72
2022/05/15 00:22:08;;;;;;;6.55;2.28;;;11.20;88.30;;;;;;5069136;28;20031;-73
2022/05/15 00:24:35;;;;;;;12.13;2.55;;;11.20;88.40;;;;;;5070889;28;20024;-72
2022/05/15 00:27:01;;;;;;;6.63;2.40;;;11.20;88.70;;;;;;5071145;28;20481;-72
2022/05/15 00:29:26;;;;;;;5.90;2.38;;;11.20;88.90;;;;;;5069774;28;20021;-72
2022/05/15 00:31:52;;;;;;;6.38;2.50;;;11.10;89.10;;;;;;5063692;28;20048;-72
2022/05/15 00:34:18;;;;;;;10.15;2.30;;;11.10;89.20;;;;;;5062609;28;20508;-72
2022/05/15 00:36:44;;;;;;;7.80;1.95;;;11.10;89.20;;;;;;5075973;28;20032;-72
2022/05/15 00:39:10;;;;;;;9.70;3.03;;;11.10;89.20;;;;;;5076956;28;20093;-72
2022/05/15 00:41:38;;;;;;;7.95;2.45;;;11.10;89.40;;;;;;5060522;28;20034;-72
2022/05/15 00:44:06;;;;;;;8.35;2.30;;;11.00;89.40;;;;;;5072220;28;20535;-72
2022/05/15 00:46:39;;;;;;;6.07;2.70;;;11.00;89.60;;;;;;5069556;28;20028;-72
2022/05/15 00:49:08;;;;;;;7.93;2.42;;;10.90;90.20;;;;;;5063704;28;20028;-72
2022/05/15 00:51:49;;;;;;;5.15;2.88;;;10.90;90.10;;;;;;5064956;28;20761;-73
2022/05/15 00:54:25;;;;;;;9.80;3.42;;;10.90;89.40;;;;;;5088694;28;20063;-72
2022/05/15 00:56:58;;;;;;;7.40;2.55;;;10.90;88.30;;;;;;5072642;28;20032;-72
2022/05/15 00:59:27;;;;;;;5.85;2.90;;;10.80;87.90;;;;;;5076381;28;20095;-72
2022/05/15 01:01:52;;;;;;;6.00;2.67;;;10.70;87.80;;;;;;5068796;28;20028;-72
2022/05/15 01:04:20;;;;;;;5.57;2.40;;;10.70;88.40;;;;;;5075814;28;20036;-72
2022/05/15 01:06:46;;;;;;;7.32;2.78;;;10.60;89.20;;;;;;5073898;28;20025;-72
2022/05/15 01:09:14;;;;;;;8.45;3.72;;;10.60;89.20;;;;;;5064803;28;20033;-72
2022/05/15 01:11:43;;;;;;;7.28;3.17;;;10.50;89.20;;;;;;5071207;28;20096;-72
2022/05/15 01:14:12;;;;;;;8.60;3.65;;;10.40;89.40;;;;;;5068032;28;20031;-72
2022/05/15 01:16:38;;;;;;;9.48;3.40;;;10.30;89.60;;;;;;5073676;28;20040;-72
2022/05/15 01:19:05;;;;;;;10.52;3.40;;;10.20;90.00;;;;;;5071122;28;20036;-72
2022/05/15 01:21:36;;;;;;;7.55;2.80;;;10.20;90.20;;;;;;5064620;28;20094;-73
2022/05/15 01:24:05;;;;;;;7.93;3.03;;;10.10;90.40;;;;;;5075444;28;20036;-73
2022/05/15 01:26:33;;;;;;;6.90;3.83;;;10.10;90.60;;;;;;5066699;28;20028;-73
2022/05/15 01:28:59;;;;;;;6.68;2.85;;;10.10;90.80;;;;;;5069449;28;20029;-73
2022/05/15 01:31:26;;;;;;;6.93;2.47;;;10.10;91.00;;;;;;5067147;28;20036;-71
2022/05/15 01:33:53;;;;;;;9.23;3.65;;;10.10;91.30;;;;;;5077350;28;20024;-74
2022/05/15 01:36:23;;;;;;;7.88;3.35;;;10.10;91.50;;;;;;5068186;28;20039;-79
2022/05/15 01:38:49;;;;;;;5.38;3.20;;;10.10;91.60;;;;;;5075062;28;20054;-77
2022/05/15 01:41:15;;;;;;;10.35;3.25;;;10.10;91.60;;;;;;5075284;28;20629;-74
2022/05/15 01:43:52;;;;;;;6.88;3.10;;;10.00;91.60;;;;;;5067000;28;20029;-74
2022/05/15 01:46:25;;;;;;;5.47;2.85;;;10.00;91.80;;;;;;5070958;28;20024;-74
2022/05/15 01:48:53;;;;;;;8.90;2.97;;;10.00;91.90;;;;;;5078749;28;20032;-74
2022/05/15 01:51:20;;;;;;;7.00;2.80;;;10.00;91.70;;;;;;5065250;28;20025;-74
2022/05/15 01:53:46;;;;;;;6.22;2.65;;;10.00;91.50;;;;;;5074820;28;20077;-73
2022/05/15 01:56:14;;;;;;;6.18;3.00;;;9.90;91.30;;;;;;5079016;28;20032;-72
2022/05/15 01:58:40;;;;;;;4.18;2.70;;;9.90;91.20;;;;;;5071677;28;20028;-72
2022/05/15 02:01:07;;;;;;;8.38;2.90;;;9.80;91.10;;;;;;5073069;28;20063;-73
2022/05/15 02:03:34;;;;;;;5.75;2.20;;;9.70;91.10;;;;;;5080495;28;20081;-73
2022/05/15 02:06:01;;;;;;;7.45;2.78;;;9.70;91.20;;;;;;5078538;28;20040;-72
2022/05/15 02:08:33;;;;;;;5.85;2.53;;;9.70;91.40;;;;;;5079246;28;20040;-72
2022/05/15 02:11:00;;;;;;;5.03;2.15;;;9.60;91.60;;;;;;5078022;28;20020;-72
2022/05/15 02:13:26;;;;;;;9.88;2.78;;;9.60;91.80;;;;;;5072857;28;20089;-72
2022/05/15 02:15:53;;;;;;;6.55;2.30;;;9.60;91.90;;;;;;5078163;28;20032;-71
2022/05/15 02:18:19;;;;;;;5.88;2.25;;;9.60;92.00;;;;;;5077506;28;20039;-75
2022/05/15 02:20:45;;;;;;;4.50;1.75;;;9.60;92.10;;;;;;5068107;28;20032;-72
2022/05/15 02:23:11;;;;;;;6.72;2.40;;;9.60;92.10;;;;;;5070596;28;20024;-72
2022/05/15 02:25:38;;;;;;;5.05;2.15;;;9.60;92.00;;;;;;5066530;28;20556;-72
2022/05/15 02:28:05;;;;;;;5.78;2.28;;;9.60;91.60;;;;;;5074007;28;20124;-72
2022/05/15 02:30:30;;;;;;;5.78;2.20;;;9.60;91.60;;;;;;5092998;28;20024;-75
2022/05/15 02:32:57;;;;;;;2.40;1.65;;;9.60;91.70;;;;;;5076086;28;20056;-73
2022/05/15 02:35:23;;;;;;;5.95;2.10;;;9.60;92.00;;;;;;5076826;28;20024;-75
2022/05/15 02:37:49;;;;;;;4.00;1.83;;;9.60;92.20;;;;;;5079345;28;20031;-74
2022/05/15 02:40:17;;;;;;;2.78;2.08;;;9.60;92.30;;;;;;5077183;28;20147;-75
2022/05/15 02:42:44;;;;;;;4.72;2.10;;;9.60;92.10;;;;;;5075559;28;20025;-75
2022/05/15 02:45:12;;;;;;;8.52;2.60;;;9.60;92.00;;;;;;5078608;28;20032;-75
2022/05/15 02:47:39;;;;;;;6.07;2.53;;;9.50;91.90;;;;;;5071142;28;20027;-75
2022/05/15 02:52:49;;;;;;;4.93;2.45;;;9.50;91.90;;;;;;5086079;28;20023;-75
2022/05/15 02:55:16;;;;;;;5.07;2.20;;;9.40;91.80;;;;;;5069031;28;20028;-76
2022/05/15 02:57:42;;;;;;;5.38;2.42;;;9.40;91.90;;;;;;5071264;28;20031;-74
2022/05/15 03:00:11;;;;;;;5.93;2.60;;;9.40;92.00;;;;;;5078860;28;20024;-75
2022/05/15 03:02:38;;;;;;;7.20;3.00;;;9.30;92.10;;;;;;5070365;28;20026;-74
2022/05/15 03:05:06;;;;;;;8.48;3.03;;;9.30;92.10;;;;;;5076422;28;20479;-76
2022/05/15 03:07:32;;;;;;;5.40;2.30;;;9.40;92.10;;;;;;5079077;28;20106;-75
2022/05/15 03:09:58;;;;;;;8.95;2.85;;;9.40;91.90;;;;;;5076522;28;20073;-76
2022/05/15 03:12:24;;;;;;;5.40;2.10;;;9.40;91.60;;;;;;5078037;28;20116;-73
2022/05/15 03:14:50;;;;;;;6.07;2.70;;;9.40;91.30;;;;;;5066968;28;20334;-75
2022/05/15 03:17:17;;;;;;;4.07;2.20;;;9.30;91.30;;;;;;5069077;28;20638;-76
2022/05/15 03:19:44;;;;;;;6.07;2.30;;;9.30;91.60;;;;;;5075788;28;20039;-73
2022/05/15 03:22:10;;;;;;;5.63;2.30;;;9.30;91.90;;;;;;5067152;28;20455;-74
2022/05/15 03:24:36;;;;;;;5.68;2.20;;;9.30;92.10;;;;;;5064061;28;20034;-74
2022/05/15 03:27:01;;;;;;;6.32;2.35;;;9.30;92.20;;;;;;5065167;28;20024;-74
2022/05/15 03:29:28;;;;;;;9.30;2.40;;;9.30;92.30;;;;;;5071247;28;20039;-74
2022/05/15 03:31:54;;;;;;;4.97;2.33;;;9.30;92.50;;;;;;5072534;28;20111;-74
2022/05/15 03:34:20;;;;;;;4.18;2.35;;;9.30;92.40;;;;;;5072004;28;20040;-73
2022/05/15 03:36:48;;;;;;;5.05;2.22;;;9.30;92.40;;;;;;5069781;28;20036;-73
2022/05/15 03:39:15;;;;;;;5.75;2.30;;;9.30;92.30;;;;;;5067855;28;20588;-73
2022/05/15 03:41:42;;;;;;;4.80;2.22;;;9.30;92.30;;;;;;5073085;28;20032;-73
2022/05/15 03:44:08;;;;;;;4.80;2.22;;;9.20;92.30;;;;;;5062586;28;20032;-73
2022/05/15 03:46:35;;;;;;;4.65;1.92;;;9.30;92.30;;;;;;5069137;28;20131;-73
2022/05/15 03:49:02;;;;;;;8.55;3.08;;;9.30;92.30;;;;;;5071196;28;20024;-74
2022/05/15 03:51:27;;;;;;;6.45;2.50;;;9.30;92.30;;;;;;5071123;28;20031;-73
2022/05/15 03:53:54;;;;;;;6.72;2.30;;;9.30;92.30;;;;;;5074062;28;20433;-73
2022/05/15 03:56:49;;;;;;;4.63;2.10;;;9.30;92.30;;;;;;5069039;28;20392;-72
2022/05/15 03:59:07;;;;;;;4.78;2.63;;;9.30;92.00;;;;;;5061326;28;20024;-73
2022/05/15 04:01:33;;;;;;;8.38;3.03;;;9.30;91.90;;;;;;5069456;28;20031;-73
2022/05/15 04:03:59;;;;;;;8.60;3.58;;;9.30;91.70;;;;;;5073917;28;20028;-73
2022/05/15 04:06:25;;;;;;;6.78;2.80;;;9.30;91.40;;;;;;5072830;28;20036;-73
2022/05/15 04:08:51;;;;;;;7.65;2.75;;;9.30;91.40;;;;;;5075363;28;20032;-73
2022/05/15 04:11:18;;;;;;;6.55;3.05;;;9.30;91.50;;;;;;5071695;28;20158;-73
2022/05/15 04:13:44;;;;;;;5.93;2.53;;;9.30;91.50;;;;;;5062720;28;20020;-73
2022/05/15 04:16:11;;;;;;;3.88;2.13;;;9.30;91.90;;;;;;5064739;28;20032;-73
2022/05/15 04:18:37;;;;;;;4.05;2.10;;;9.40;92.00;;;;;;5072000;28;20115;-74
2022/05/15 04:21:03;;;;;;;5.97;2.05;;;9.40;92.00;;;;;;5072382;28;20028;-74
2022/05/15 04:23:29;;;;;;;5.10;2.00;;;9.50;92.00;;;;;;5077543;28;20098;-74
2022/05/15 04:25:55;;;;;;;7.05;2.78;;;9.50;92.20;;;;;;5075017;28;20074;-73
2022/05/15 04:28:22;;;;;;;11.82;5.13;;;9.60;92.20;;;;;;5074441;28;20032;-73
2022/05/15 04:30:48;;;;;;;9.98;4.40;;;9.70;91.90;;;;;;5077960;28;20023;-73
2022/05/15 04:33:14;;;;;;;6.95;3.30;;;9.80;91.40;;;;;;5071133;28;20056;-73
2022/05/15 04:35:39;;;;;;;11.68;4.15;;;9.80;91.20;;;;;;5072648;28;20074;-73
2022/05/15 04:38:07;;;;;;;9.55;2.65;;;9.90;91.20;;;;;;5070807;28;20032;-73
2022/05/15 04:40:33;;;;;;;5.18;2.38;;;9.80;91.30;;;;;;5067308;28;20399;-73
2022/05/15 04:42:59;;;;;;;7.35;2.50;;;9.90;91.50;;;;;;5073245;28;20023;-73
2022/05/15 04:45:25;;;;;;;8.50;2.53;;;10.00;91.70;;;;;;5064202;28;20143;-73
2022/05/15 04:47:50;;;;;;;7.05;2.42;;;10.10;92.00;;;;;;5068484;28;20120;-73
2022/05/15 04:50:18;;;;;;;5.95;2.63;;;10.20;92.20;;;;;;5072243;28;20024;-72
2022/05/15 04:52:44;;;;;;;5.78;2.42;;;10.30;92.30;;;;;;5071980;28;20111;-72
2022/05/15 04:55:11;;;;;;;7.18;2.70;;;10.40;92.50;;;;;;5071301;28;20025;-73
2022/05/15 04:57:37;;;;;;;5.72;2.80;;;10.50;92.50;;;;;;5075704;28;20729;-72
2022/05/15 05:00:06;;;;;;;7.72;2.47;;;10.70;92.50;;;;;;5068167;28;20059;-73
2022/05/15 05:02:32;;;;;;;6.03;2.65;;;10.80;92.30;;;;;;5070742;28;20122;-73
2022/05/15 05:04:59;;;;;;;5.60;2.63;;;10.90;92.30;;;;;;5072843;28;20123;-72
2022/05/15 05:07:27;;;;;;;5.40;2.58;;;11.00;92.20;;;;;;5071511;28;20025;-73
2022/05/15 05:09:52;;;;;;;8.15;3.47;;;11.20;92.10;;;;;;5068570;28;20073;-73
2022/05/15 05:12:18;;;;;;;8.82;4.28;;;11.30;91.90;;;;;;5074692;28;20817;-72
2022/05/15 05:14:44;;;;;;;8.57;4.35;;;11.40;91.80;;;;;;5066997;28;20063;-73
2022/05/15 05:17:09;;;;;;;9.23;4.82;;;11.90;91.70;;;;;;5063507;28;20750;-73
2022/05/15 05:19:35;;;;;;;6.90;4.35;;;12.30;90.90;;;;;;5071159;28;20039;-72
2022/05/15 05:22:01;;;;;;;10.65;4.50;;;13.00;89.90;;;;;;5072250;28;20035;-73
2022/05/15 05:24:27;;;;;;;8.52;3.17;;;13.70;86.80;;;;;;5074821;28;20551;-73
2022/05/15 05:26:52;;;;;;;5.40;2.70;;;14.00;84.80;;;;;;5076733;28;20031;-73
2022/05/15 05:29:18;;;;;;;5.05;2.40;;;14.10;83.80;;;;;;5073036;28;20032;-73
2022/05/15 05:31:44;;;;;;;7.72;2.30;;;14.40;83.80;;;;;;5074618;28;20107;-73
2022/05/15 05:34:10;;;;;;;5.45;2.47;;;14.70;83.00;;;;;;5064494;28;20125;-73
2022/05/15 05:36:36;;;;;;;6.35;2.38;;;14.80;82.20;;;;;;5073470;28;20039;-73
2022/05/15 05:39:02;;;;;;;4.38;2.08;;;14.80;81.80;;;;;;5075486;28;20588;-73
2022/05/15 05:41:28;;;;;;;5.35;2.08;;;14.90;82.00;;;;;;5078560;28;20498;-73
2022/05/15 05:43:54;;;;;;;4.00;1.95;;;15.00;81.80;;;;;;5073076;28;20032;-72
2022/05/15 05:46:21;;;;;;;4.93;1.73;;;15.00;81.60;;;;;;5067556;28;20827;-73
2022/05/15 05:48:47;;;;;;;7.60;2.08;;;15.10;81.50;;;;;;5070855;28;20024;-73
2022/05/15 05:51:15;;;;;;;6.32;2.10;;;15.10;81.00;;;;;;5074337;28;20050;-73
2022/05/15 05:53:41;;;;;;;3.65;1.50;;;15.30;79.30;;;;;;5072577;28;20055;-73
2022/05/15 05:56:07;;;;;;;4.22;1.58;;;15.50;78.30;;;;;;5075886;28;20043;-74
2022/05/15 05:58:33;;;;;;;3.67;1.17;;;15.60;76.90;;;;;;5075223;28;20036;-73
2022/05/15 06:00:58;;;;;;;5.20;1.48;;;15.90;76.80;;;;;;5077862;28;20029;-73
2022/05/15 06:06:09;;;;;;;6.03;1.23;;;16.10;73.00;;;;;;5069650;28;20036;-73
2022/05/15 06:08:35;;;;;;;3.80;1.63;;;16.00;73.00;;;;;;5072585;28;20028;-73
2022/05/15 06:11:01;;;;;;;3.58;1.45;;;16.00;73.20;;;;;;5077204;28;20074;-73
2022/05/15 06:13:27;;;;;;;5.32;1.35;;;16.30;71.10;;;;;;5075897;28;20594;-73
2022/05/15 06:15:54;;;;;;;5.68;1.50;;;16.60;70.30;;;;;;5070675;28;20458;-73
2022/05/15 06:18:20;;;;;;;4.55;1.38;;;17.20;67.70;;;;;;5080392;28;20138;-73
2022/05/15 06:20:46;;;;;;;6.20;1.30;;;17.20;66.50;;;;;;5071271;28;20040;-73
2022/05/15 06:23:11;;;;;;;4.00;1.25;;;17.00;66.80;;;;;;5074853;28;20043;-73
2022/05/15 06:25:37;;;;;;;4.32;1.55;;;16.70;66.80;;;;;;5074592;28;20023;-73
2022/05/15 06:28:05;;;;;;;6.35;1.67;;;16.60;67.90;;;;;;5075669;28;20395;-74
2022/05/15 06:30:30;;;;;;;6.43;1.67;;;16.90;66.20;;;;;;5074602;28;20547;-74
2022/05/15 06:32:56;;;;;;;2.90;0.98;;;17.00;65.10;;;;;;5069157;28;20028;-73
2022/05/15 06:35:22;;;;;;;4.53;1.17;;;17.00;65.70;;;;;;5071982;28;20491;-74
2022/05/15 06:37:48;;;;;;;3.40;1.42;;;16.90;64.30;;;;;;5074963;28;20578;-73
2022/05/15 06:40:14;;;;;;;2.75;0.93;;;17.00;64.80;;;;;;5071903;28;20460;-74
2022/05/15 06:42:41;;;;;;;4.55;1.10;;;17.00;65.00;;;;;;5073811;28;20479;-74
2022/05/15 06:45:10;;;;;;;5.68;1.20;;;16.90;64.00;;;;;;5078378;28;20404;-74
2022/05/15 06:47:36;;;;;;;4.30;1.48;;;16.80;64.50;;;;;;5070675;28;20054;-74
2022/05/15 06:50:04;;;;;;;4.47;1.20;;;16.80;64.90;;;;;;5072812;28;20019;-73
2022/05/15 06:52:30;;;;;;;4.53;1.25;;;16.80;65.50;;;;;;5079456;28;20034;-73
2022/05/15 06:54:56;;;;;;;4.47;1.27;;;16.80;65.70;;;;;;5074787;28;20024;-73
2022/05/15 06:57:31;;;;;;;4.05;1.05;;;16.70;65.10;;;;;;5068850;28;20044;-73
2022/05/15 07:00:07;;;;;;;2.92;0.95;;;16.80;65.60;;;;;;5077113;28;20036;-74
2022/05/15 07:02:33;;;;;;;;;;;16.90;65.50;;;;;;5074804;28;20111;-73
2022/05/15 07:04:58;;;;;;;4.43;1.00;;;16.90;65.10;;;;;;5066128;28;19923;-73
2022/05/15 07:07:24;;;;;;;4.57;1.25;;;17.30;64.10;;;;;;5072329;28;20037;-73
2022/05/15 07:09:50;;;;;;;4.40;1.38;;;17.50;62.00;;;;;;5073058;28;20039;-73
2022/05/15 07:12:16;;;;;;;6.68;1.40;;;17.40;61.80;;;;;;5072297;28;20396;-73
2022/05/15 07:14:43;;;;;;;5.50;1.45;;;17.40;62.00;;;;;;5075217;28;20035;-73
2022/05/15 07:17:09;;;;;;;4.43;1.80;;;17.40;62.40;;;;;;5074631;28;20079;-74
2022/05/15 07:19:34;;;;;;;4.30;1.13;;;17.40;62.10;;;;;;5069665;28;20063;-73
2022/05/15 07:22:00;;;;;;;4.10;1.67;;;17.40;62.00;;;;;;5068265;28;20166;-74
2022/05/15 07:24:26;;;;;;;4.50;1.30;;;17.30;62.20;;;;;;5070340;28;20028;-74
2022/05/15 07:26:52;;;;;;;7.18;1.77;;;17.20;62.30;;;;;;5076624;28;20144;-74
2022/05/15 07:29:18;;;;;;;3.15;1.30;;;17.20;63.20;;;;;;5076954;28;20035;-75
2022/05/15 07:31:44;;;;;;;3.65;1.27;;;17.30;63.90;;;;;;5075755;28;20016;-75
2022/05/15 07:34:10;;;;;;;4.32;1.23;;;17.50;62.80;;;;;;5078144;28;20479;-74
2022/05/15 07:36:36;;;;;;;7.43;1.45;;;17.60;62.40;;;;;;5072698;28;20029;-74
2022/05/15 07:39:02;;;;;;;6.35;1.48;;;17.60;61.20;;;;;;5075492;28;20479;-74
2022/05/15 07:41:28;;;;;;;5.57;1.40;;;17.60;62.20;;;;;;5068822;28;20032;-74
2022/05/15 07:43:54;;;;;;;6.57;1.27;;;17.60;61.90;;;;;;5070444;28;20476;-74
2022/05/15 07:46:21;;;;;;;6.70;1.63;;;17.60;61.50;;;;;;5075280;28;20060;-76
2022/05/15 07:48:47;;;;;;;6.85;1.10;;;17.60;62.50;;;;;;5077756;28;20040;-73
2022/05/15 07:51:13;;;;;;;5.50;1.30;;;17.60;61.90;;;;;;5077573;28;20085;-75
2022/05/15 07:53:40;;;;;;;2.88;1.02;;;17.70;62.50;;;;;;5072016;28;20042;-74
2022/05/15 07:56:09;;;;;;;7.03;1.73;;;17.90;62.60;;;;;;5076712;28;20075;-74
2022/05/15 07:58:38;;;;;;;3.50;1.20;;;18.00;61.60;;;;;;5074307;28;20043;-74
2022/05/15 08:01:05;;;;;;;6.15;1.52;;;18.10;60.00;;;;;;5077458;28;20051;-75
2022/05/15 08:03:38;;;;;;;5.63;1.52;;;18.00;60.40;;;;;;5077081;28;20035;-75
2022/05/15 08:08:51;;;;;;;8.75;1.60;;;18.10;60.40;;;;;;5075040;28;20027;-75
2022/05/15 08:11:17;;;;;;;7.30;1.80;;;18.20;60.60;;;;;;5081673;28;20020;-74
2022/05/15 08:13:42;;;;;;;4.90;2.25;;;18.20;60.20;;;;;;5069079;28;20028;-76
2022/05/15 08:16:09;;;;;;;5.07;1.88;;;18.30;60.10;;;;;;5073746;28;20174;-76
2022/05/15 08:24:04;;;;;;;5.88;1.17;;;18.50;59.40;;;;;;5078585;28;20036;-76
2022/05/15 08:26:32;;;;;;;7.50;1.77;;;18.60;59.20;;;;;;5075305;28;20059;-76
2022/05/15 08:28:58;;;;;;;6.68;1.90;;;18.80;59.70;;;;;;5076648;28;20412;-76
2022/05/15 08:31:25;;;;;;;3.42;1.30;;;18.80;59.70;;;;;;5085015;28;20043;-75
2022/05/15 08:33:52;;;;;;;4.93;1.80;;;19.00;58.90;;;;;;5077092;28;20331;-78
2022/05/15 08:36:18;;;;;;;3.40;1.30;;;19.00;58.50;;;;;;5078193;28;20035;-78
2022/05/15 08:38:44;;;;;;;4.10;1.20;;;19.20;56.80;;;;;;5069257;28;20042;-78
2022/05/15 08:41:31;;;;;;;6.82;1.42;;;19.20;56.70;;;;;;5069260;28;20717;-68
2022/05/15 08:44:12;;;;;;;5.80;1.30;;;19.20;56.70;;;;;;5074612;28;20040;-71
2022/05/15 08:46:50;;;;;;;6.45;1.30;;;19.20;56.80;;;;;;5079184;28;20038;-74
2022/05/15 08:49:34;;;;;;;7.00;1.42;;;19.30;55.70;;;;;;5081041;28;20028;-72
2022/05/15 08:52:17;;;;;;;3.22;1.27;;;19.40;55.10;;;;;;5072102;28;20055;-72
2022/05/15 08:55:11;;;;;;;6.70;1.50;;;19.40;55.70;;;;;;5074467;28;20028;-74
2022/05/15 08:57:55;;;;;;;4.00;1.25;;;19.60;54.50;;;;;;5072516;28;20039;-74
2022/05/15 09:00:31;;;;;;;3.90;1.30;;;19.50;54.90;;;;;;5075770;28;20028;-74
2022/05/15 09:03:13;;;;;;;5.95;1.55;;;19.50;54.20;;;;;;5077086;28;20039;-69
2022/05/15 09:05:57;;;;;;;3.97;1.27;;;19.50;53.90;;;;;;5076500;28;20072;-66
2022/05/15 09:08:26;;;;;;;4.72;1.10;;;19.60;54.00;;;;;;5073807;28;20499;-75
2022/05/15 09:11:07;;;;;;;7.78;1.25;;;19.70;53.40;;;;;;5076219;28;20020;-75
2022/05/15 09:13:40;;;;;;;3.65;1.10;;;19.70;53.50;;;;;;5069729;28;20048;-75
2022/05/15 09:16:15;;;;;;;3.92;1.40;;;19.80;53.70;;;;;;5074675;28;20138;-76
2022/05/15 09:18:41;;;;;;;7.75;1.02;;;20.00;53.80;;;;;;5081803;28;20576;-75
2022/05/15 09:21:14;;;;;;;7.45;1.30;;;20.10;53.10;;;;;;5075677;28;20032;-75
2022/05/15 09:23:49;;;;;;;2.58;1.17;;;20.10;53.20;;;;;;5080043;28;20028;-75
2022/05/15 09:26:22;;;;;;;5.43;1.48;;;20.20;53.10;;;;;;5075211;28;20044;-74
2022/05/15 09:28:53;;;;;;;4.32;1.02;;;20.10;52.70;;;;;;5072742;28;20043;-75
2022/05/15 09:31:40;;;;;;;5.72;1.70;;;20.20;51.80;;;;;;5078904;28;20515;-75
2022/05/15 09:34:21;;;;;;;4.15;1.30;;;20.20;52.50;;;;;;5075563;28;20028;-69
2022/05/15 09:36:49;;;;;;;4.05;1.25;;;20.10;50.80;;;;;;5081035;28;20028;-81
2022/05/15 09:39:38;;;;;;;5.30;1.33;;;20.00;51.40;;;;;;5079433;28;20569;-77
2022/05/15 09:45:17;;;;;;;5.60;1.15;;;20.00;50.80;;;;;;5078103;28;20040;-78
2022/05/15 09:48:01;;;;;;;3.70;1.30;;;19.90;51.50;;;;;;5076976;28;20073;-76
2022/05/15 09:50:57;;;;;;;6.50;1.50;;;20.20;51.50;;;;;;5073832;28;20075;-76
2022/05/15 09:53:37;;;;;;;;;;;20.50;50.60;;;;;;5067107;28;20131;-70
2022/05/15 09:56:08;;;;;;;2.17;0.95;;;20.90;48.90;;;;;;5069338;28;19908;-72
2022/05/15 09:58:52;;;;;;;2.40;1.08;;;21.00;48.10;;;;;;5072205;28;20043;-72
2022/05/15 10:01:26;;;;;;;3.20;1.17;;;20.90;47.40;;;;;;5075837;28;20027;-73
2022/05/15 10:03:57;;;;;;;3.75;0.80;;;20.80;45.80;;;;;;5072828;28;20043;-73
2022/05/15 10:06:26;;;;;;;3.22;0.73;;;20.80;45.00;;;;;;5074830;28;20027;-73
2022/05/15 10:09:15;;;;;;;2.90;1.02;;;20.80;45.60;;;;;;5082576;28;20074;-73
2022/05/15 10:11:47;;;;;;;4.68;1.25;;;20.90;47.60;;;;;;5079350;28;20020;-72
2022/05/15 10:14:27;;;;;;;3.42;1.10;;;21.10;45.20;;;;;;5072151;28;20036;-73
2022/05/15 10:16:56;;;;;;;3.00;1.17;;;21.20;45.40;;;;;;5073713;28;20036;-72
2022/05/15 10:19:39;;;;;;;3.88;1.10;;;21.30;47.30;;;;;;5074660;28;20859;-73
2022/05/15 10:22:20;;;;;;;2.75;1.17;;;21.40;45.60;;;;;;5076884;28;20526;-72
2022/05/15 10:24:48;;;;;;;3.42;0.75;;;21.50;45.90;;;;;;5077719;28;20056;-72
2022/05/15 10:27:22;;;;;;;3.42;1.10;;;21.70;44.40;;;;;;5077122;28;20039;-75
2022/05/15 10:30:03;;;;;;;2.22;1.00;;;21.70;43.50;;;;;;5071384;28;20408;-73
2022/05/15 10:32:38;;;;;;;2.70;1.00;;;22.50;43.20;;;;;;5079726;28;20067;-73
2022/05/15 10:35:07;;;;;;;2.92;1.40;;;23.20;42.30;;;;;;5077448;28;20484;-74
2022/05/15 10:37:42;;;;;;;2.25;1.13;;;22.90;41.80;;;;;;5081978;28;20051;-74
2022/05/15 10:40:16;;;;;;;4.53;1.10;;;22.40;43.60;;;;;;5081930;28;20032;-71
2022/05/15 10:43:08;;;;;;;3.30;1.67;;;22.00;44.10;;;;;;5080445;28;20020;-72
2022/05/15 10:46:09;;;;;;;2.75;0.90;;;21.70;44.30;;;;;;5077705;28;20037;-71
2022/05/15 10:48:51;;;;;;;3.90;1.58;;;21.50;46.60;;;;;;5073588;28;20463;-72
2022/05/15 10:51:23;;;;;;;1.77;0.93;;;21.50;46.00;;;;;;5075122;28;20047;-69
2022/05/15 10:57:33;;;;;;;3.72;1.30;;;22.00;44.20;;;;;;5076402;28;20093;-72
2022/05/15 11:00:17;;;;;;;4.82;1.38;;;22.20;43.10;;;;;;5082086;28;20511;-72
2022/05/15 11:03:12;;;;;;;4.43;1.30;;;22.40;43.20;;;;;;5069975;28;20031;-72
2022/05/15 11:05:43;;;;;;;5.78;1.20;;;22.30;43.10;;;;;;5068798;28;20052;-72
2022/05/15 11:08:43;;;;;;;2.47;1.02;;;22.00;44.00;;;;;;5080308;28;20487;-72
2022/05/15 11:11:38;;;;;;;3.15;1.23;;;21.90;44.50;;;;;;5080001;28;20036;-72
2022/05/15 11:14:36;;;;;;;5.00;1.45;;;21.80;44.50;;;;;;5078397;28;20136;-72
2022/05/15 11:17:14;;;;;;;2.53;0.80;;;21.80;43.90;;;;;;5067140;28;20432;-72
2022/05/15 11:19:44;;;;;;;3.70;1.10;;;21.80;45.90;;;;;;5072239;28;20680;-72
2022/05/15 11:22:37;;;;;;;1.85;0.82;;;21.90;43.40;;;;;;5071324;28;20041;-73
2022/05/15 11:25:12;;;;;;;2.15;1.00;;;21.80;43.10;;;;;;5077089;28;20032;-71
2022/05/15 11:27:37;;;;;;;2.38;0.80;;;21.70;43.70;;;;;;5077268;28;20032;-73
2022/05/15 11:30:11;;;;;;;4.88;1.08;;;21.70;44.70;;;;;;5073958;28;20024;-72
2022/05/15 11:32:46;;;;;;;3.00;0.90;;;21.80;44.30;;;;;;5081568;28;20031;-70
2022/05/15 11:35:18;;;;;;;4.43;1.10;;;21.90;45.40;;;;;;5071909;28;20056;-73
2022/05/15 11:37:55;;;;;;;3.47;0.90;;;21.90;44.60;;;;;;5076135;28;20594;-71
2022/05/15 11:40:36;;;;;;;1.00;0.60;;;22.00;43.60;;;;;;5075516;28;20040;-73
2022/05/15 11:43:26;;;;;;;0.82;0.68;;;21.90;44.10;;;;;;5076049;28;20051;-73
2022/05/15 11:46:00;;;;;;;1.67;0.70;;;22.00;44.30;;;;;;5075357;28;20115;-71
2022/05/15 11:48:31;;;;;;;1.67;0.95;;;22.10;42.90;;;;;;5071354;28;20032;-74
2022/05/15 11:51:14;;;;;;;3.28;1.02;;;22.30;42.80;;;;;;5073227;28;20028;-74
2022/05/15 11:54:07;;;;;;;2.50;0.90;;;22.30;41.40;;;;;;5075276;28;20487;-74
2022/05/15 11:56:51;;;;;;;1.00;0.60;;;22.30;41.40;;;;;;5074979;28;20039;-74
2022/05/15 11:59:21;;;;;;;2.10;0.77;;;22.20;41.30;;;;;;5077221;28;20047;-74
2022/05/15 12:01:51;;;;;;;1.15;0.70;;;22.20;39.90;;;;;;5074801;28;20016;-74
2022/05/15 12:04:43;;;;;;;3.38;0.90;;;22.20;41.00;;;;;;5071906;28;20056;-74
2022/05/15 12:07:09;;;;;;;1.58;0.70;;;22.30;39.90;;;;;;5080473;28;20483;-74
2022/05/15 12:09:40;;;;;;;2.38;0.88;;;22.30;39.50;;;;;;5077377;28;20042;-74
2022/05/15 12:12:24;;;;;;;2.22;0.70;;;22.40;40.70;;;;;;5075853;28;20493;-73
2022/05/15 12:15:13;;;;;;;1.92;0.65;;;22.20;40.60;;;;;;5070126;28;20512;-74
2022/05/15 12:17:42;;;;;;;2.30;0.98;;;22.10;42.70;;;;;;5079756;28;20415;-74
2022/05/15 12:20:16;;;;;;;1.77;0.80;;;22.30;41.20;;;;;;5066877;28;20032;-74
2022/05/15 12:22:50;;;;;;;3.55;1.00;;;22.30;40.70;;;;;;5070300;28;20031;-75
2022/05/15 12:25:17;;;;;;;1.90;0.85;;;22.50;40.60;;;;;;5077229;28;20024;-75
2022/05/15 12:30:47;;;;;;;2.47;0.70;;;22.60;39.60;;;;;;5075065;28;20036;-79
2022/05/15 12:33:13;;;;;;;2.15;0.70;;;22.60;40.40;;;;;;5080566;28;20508;-81
2022/05/15 12:35:47;;;;;;;2.95;0.80;;;22.70;40.20;;;;;;5072261;28;20496;-80
2022/05/15 12:38:13;;;;;;;3.88;0.90;;;22.90;39.70;;;;;;5066001;28;20634;-79
2022/05/15 12:41:06;;;;;;;2.35;1.00;;;23.00;38.80;;;;;;5076024;28;20024;-79
2022/05/15 12:43:44;;;;;;;0.65;0.50;;;23.00;38.60;;;;;;5081690;28;20036;-80
2022/05/15 12:46:32;;;;;;;1.90;0.70;;;23.10;38.60;;;;;;5080009;28;20032;-79
2022/05/15 12:48:59;;;;;;;2.70;0.75;;;23.10;37.70;;;;;;5076538;28;20020;-79
2022/05/15 12:51:32;;;;;;;1.70;0.65;;;23.00;37.60;;;;;;5081301;28;20042;-77
2022/05/15 12:53:59;;;;;;;1.90;0.80;;;23.10;37.50;;;;;;5075930;28;20055;-77
2022/05/15 12:56:32;;;;;;;1.05;0.65;;;23.00;37.90;;;;;;5078148;28;20050;-78
2022/05/15 12:59:10;;;;;;;3.60;1.10;;;23.10;37.70;;;;;;5069371;28;20127;-78
2022/05/15 13:01:36;;;;;;;1.98;0.90;;;23.10;37.60;;;;;;5083308;28;20064;-78
2022/05/15 13:04:04;;;;;;;2.40;0.93;;;23.00;38.00;;;;;;5077330;28;20124;-77
2022/05/15 13:06:38;;;;;;;1.52;0.70;;;23.00;38.00;;;;;;5078125;28;20032;-75
2022/05/15 13:09:08;;;;;;;2.80;0.70;;;23.00;38.00;;;;;;5074501;28;20435;-77
2022/05/15 13:11:47;;;;;;;1.83;0.88;;;22.90;37.30;;;;;;5074816;28;20562;-77
2022/05/15 13:14:23;;;;;;;0.70;0.60;;;22.70;36.40;;;;;;5081286;28;20036;-78
2022/05/15 13:16:52;;;;;;;2.55;0.75;;;22.50;37.00;;;;;;5078752;28;20063;-77
2022/05/15 13:19:36;;;;;;;2.05;0.65;;;22.40;38.10;;;;;;5084160;28;20028;-77
2022/05/15 13:22:03;;;;;;;2.25;0.93;;;22.40;37.10;;;;;;5082863;28;20039;-78
2022/05/15 13:24:31;;;;;;;4.20;0.60;;;22.40;37.80;;;;;;5083208;28;20530;-78
2022/05/15 13:26:58;;;;;;;1.63;0.68;;;22.50;38.00;;;;;;5083449;28;20020;-77
2022/05/15 13:29:30;;;;;;;2.17;0.90;;;22.60;37.00;;;;;;5082105;28;20028;-78
2022/05/15 13:31:57;;;;;;;2.95;0.75;;;22.60;37.70;;;;;;5083656;28;20038;-78